createdAt,value
2018-09-19T00:00:07.045Z,10.70
2018-09-19T00:01:07.038Z,10.90
2018-09-19T00:02:07.047Z,10.90
2018-09-19T00:03:07.070Z,11.10
2018-09-19T00:04:07.082Z,11.10
2018-09-19T00:05:07.095Z,11.10
2018-09-19T00:06:07.118Z,11.00
2018-09-19T00:07:07.130Z,9.80
2018-09-19T00:08:07.123Z,10.10
2018-09-19T00:09:07.125Z,11.80
2018-09-19T00:10:07.164Z,12.70
2018-09-19T00:11:07.186Z,11.60
2018-09-19T00:12:07.157Z,12.10
2018-09-19T00:13:07.176Z,12.00
2018-09-19T00:14:07.220Z,12.40
2018-09-19T00:15:07.197Z,12.20
2018-09-19T00:16:07.214Z,11.80
2018-09-19T00:17:07.214Z,13.00
2018-09-19T00:18:07.226Z,11.30
2018-09-19T00:19:07.249Z,11.90
2018-09-19T00:20:07.256Z,11.60
2018-09-19T00:21:07.300Z,15.90
2018-09-19T00:22:07.262Z,15.30
2018-09-19T00:23:07.295Z,13.00
2018-09-19T00:24:07.307Z,11.30
2018-09-19T00:25:07.325Z,13.40
2018-09-19T00:26:07.318Z,16.00
2018-09-19T00:27:07.324Z,19.80
2018-09-19T00:28:07.358Z,17.90
2018-09-19T00:29:07.343Z,13.80
2018-09-19T00:30:07.395Z,13.50
2018-09-19T00:31:07.380Z,14.20
2018-09-19T00:32:07.374Z,20.30
2018-09-19T00:33:07.424Z,16.70
2018-09-19T00:34:07.393Z,11.20
2018-09-19T00:35:07.398Z,10.80
2018-09-19T00:36:07.428Z,10.40
2018-09-19T00:37:07.434Z,10.40
2018-09-19T00:38:07.479Z,10.40
2018-09-19T00:39:07.471Z,10.90
2018-09-19T00:40:07.538Z,11.70
2018-09-19T00:41:07.486Z,11.60
2018-09-19T00:42:07.534Z,11.20
2018-09-19T00:43:07.496Z,11.10
2018-09-19T00:44:07.519Z,11.70
2018-09-19T00:45:07.585Z,11.50
2018-09-19T00:46:07.537Z,11.70
2018-09-19T00:47:07.614Z,11.20
2018-09-19T00:48:07.568Z,11.40
2018-09-19T00:49:07.555Z,11.30
2018-09-19T00:50:07.632Z,10.80
2018-09-19T00:51:07.590Z,11.10
2018-09-19T00:52:07.603Z,10.50
2018-09-19T00:53:07.606Z,10.40
2018-09-19T00:54:07.629Z,10.50
2018-09-19T00:55:07.656Z,10.60
2018-09-19T00:56:07.633Z,10.40
2018-09-19T00:57:07.673Z,11.40
2018-09-19T00:58:07.691Z,10.50
2018-09-19T00:59:07.693Z,11.00
2018-09-19T01:00:07.693Z,10.50
2018-09-19T01:01:07.718Z,11.10
2018-09-19T01:02:07.709Z,10.70
2018-09-19T01:03:07.781Z,10.80
2018-09-19T01:04:07.793Z,10.10
2018-09-19T01:05:07.749Z,9.50
2018-09-19T01:06:07.790Z,10.30
2018-09-19T01:07:07.763Z,9.70
2018-09-19T01:08:07.839Z,8.60
2018-09-19T01:09:07.826Z,8.40
2018-09-19T01:10:07.785Z,9.90
2018-09-19T01:11:07.830Z,8.10
2018-09-19T01:12:07.827Z,7.40
2018-09-19T01:13:07.921Z,7.20
2018-09-19T01:14:07.893Z,6.60
2018-09-19T01:15:07.845Z,7.40
2018-09-19T01:16:07.872Z,7.10
2018-09-19T01:17:07.903Z,7.10
2018-09-19T01:18:07.894Z,6.90
2018-09-19T01:19:07.946Z,8.00
2018-09-19T01:20:07.929Z,7.40
2018-09-19T01:21:07.922Z,7.10
2018-09-19T01:22:07.910Z,6.70
2018-09-19T01:23:07.938Z,6.80
2018-09-19T01:24:07.972Z,6.20
2018-09-19T01:25:08.052Z,6.70
2018-09-19T01:26:07.986Z,6.40
2018-09-19T01:27:08.008Z,6.40
2018-09-19T01:28:07.992Z,6.70
2018-09-19T01:29:08.016Z,6.20
2018-09-19T01:30:08.063Z,6.10
2018-09-19T01:31:08.078Z,6.60
2018-09-19T01:32:08.069Z,6.70
2018-09-19T01:33:08.064Z,6.70
2018-09-19T01:34:08.071Z,6.50
2018-09-19T01:35:08.091Z,6.60
2018-09-19T01:36:08.118Z,6.50
2018-09-19T01:37:08.102Z,6.40
2018-09-19T01:38:08.122Z,6.30
2018-09-19T01:39:08.141Z,6.40
2018-09-19T01:40:08.173Z,6.30
2018-09-19T01:41:08.137Z,6.40
2018-09-19T01:42:08.167Z,6.60
2018-09-19T01:43:08.164Z,6.50
2018-09-19T01:44:08.164Z,6.60
2018-09-19T01:45:08.215Z,6.50
2018-09-19T01:46:08.217Z,6.30
2018-09-19T01:47:08.210Z,5.90
2018-09-19T01:48:08.227Z,6.40
2018-09-19T01:49:08.251Z,7.00
2018-09-19T01:50:08.253Z,6.50
2018-09-19T01:51:08.286Z,6.40
2018-09-19T01:52:08.257Z,6.60
2018-09-19T01:53:08.303Z,6.10
2018-09-19T01:54:08.308Z,6.50
2018-09-19T01:55:08.321Z,6.30
2018-09-19T01:56:08.346Z,6.40
2018-09-19T01:57:08.370Z,7.00
2018-09-19T01:58:08.337Z,6.60
2018-09-19T01:59:08.369Z,6.70
2018-09-19T02:00:08.373Z,6.50
2018-09-19T02:01:08.363Z,6.50
2018-09-19T02:02:08.419Z,6.30
2018-09-19T02:03:08.392Z,6.60
2018-09-19T02:04:08.448Z,6.60
2018-09-19T02:05:08.426Z,6.70
2018-09-19T02:06:08.481Z,6.30
2018-09-19T02:07:08.469Z,6.20
2018-09-19T02:08:08.506Z,6.90
2018-09-19T02:09:08.472Z,6.50
2018-09-19T02:10:08.484Z,6.70
2018-09-19T02:11:08.497Z,6.60
2018-09-19T02:12:08.489Z,6.40
2018-09-19T02:13:08.517Z,6.70
2018-09-19T02:14:08.532Z,6.50
2018-09-19T02:15:08.526Z,6.70
2018-09-19T02:16:08.538Z,6.70
2018-09-19T02:17:08.527Z,6.50
2018-09-19T02:18:08.691Z,6.50
2018-09-19T02:19:08.597Z,7.00
2018-09-19T02:20:08.605Z,6.40
2018-09-19T02:21:08.593Z,6.80
2018-09-19T02:22:08.590Z,6.50
2018-09-19T02:23:08.621Z,6.60
2018-09-19T02:24:08.644Z,6.40
2018-09-19T02:25:08.644Z,6.80
2018-09-19T02:26:08.675Z,6.50
2018-09-19T02:27:08.655Z,6.70
2018-09-19T02:28:08.672Z,7.00
2018-09-19T02:29:08.689Z,6.70
2018-09-19T02:30:08.733Z,6.50
2018-09-19T02:31:08.714Z,6.80
2018-09-19T02:32:08.703Z,7.00
2018-09-19T02:33:08.760Z,6.80
2018-09-19T02:34:08.747Z,7.00
2018-09-19T02:35:08.749Z,7.00
2018-09-19T02:36:08.757Z,6.80
2018-09-19T02:37:08.782Z,6.60
2018-09-19T02:38:08.769Z,6.90
2018-09-19T02:39:08.787Z,6.80
2018-09-19T02:40:08.829Z,6.90
2018-09-19T02:41:08.821Z,7.00
2018-09-19T02:42:08.834Z,6.60
2018-09-19T02:43:08.814Z,6.90
2018-09-19T02:44:08.873Z,6.80
2018-09-19T02:45:08.850Z,6.70
2018-09-19T02:46:08.869Z,6.70
2018-09-19T02:47:08.916Z,7.00
2018-09-19T02:48:08.867Z,6.70
2018-09-19T02:49:08.901Z,7.10
2018-09-19T02:50:08.943Z,6.70
2018-09-19T02:51:08.933Z,7.00
2018-09-19T02:52:08.958Z,6.80
2018-09-19T02:53:09.005Z,6.90
2018-09-19T02:54:08.930Z,6.60
2018-09-19T02:55:08.969Z,7.00
2018-09-19T02:56:08.991Z,6.90
2018-09-19T02:57:09.003Z,6.80
2018-09-19T02:58:08.972Z,6.60
2018-09-19T02:59:09.011Z,7.00
2018-09-19T03:00:09.005Z,6.80
2018-09-19T03:01:09.032Z,7.00
2018-09-19T03:02:09.088Z,6.70
2018-09-19T03:03:09.023Z,6.80
2018-09-19T03:04:09.108Z,6.80
2018-09-19T03:05:09.075Z,7.10
2018-09-19T03:06:09.107Z,6.90
2018-09-19T03:07:09.088Z,7.20
2018-09-19T03:08:09.107Z,6.90
2018-09-19T03:09:09.116Z,7.00
2018-09-19T03:10:09.149Z,6.80
2018-09-19T03:11:09.130Z,7.10
2018-09-19T03:12:09.157Z,7.00
2018-09-19T03:13:09.160Z,6.80
2018-09-19T03:14:09.171Z,7.10
2018-09-19T03:15:09.181Z,7.50
2018-09-19T03:16:09.201Z,7.10
2018-09-19T03:17:09.262Z,6.80
2018-09-19T03:18:09.205Z,7.40
2018-09-19T03:19:09.202Z,7.40
2018-09-19T03:20:09.226Z,7.50
2018-09-19T03:21:09.275Z,7.00
2018-09-19T03:22:09.258Z,7.00
2018-09-19T03:23:09.269Z,6.90
2018-09-19T03:24:09.282Z,7.30
2018-09-19T03:25:09.281Z,7.00
2018-09-19T03:26:09.338Z,7.20
2018-09-19T03:27:09.289Z,7.20
2018-09-19T03:28:09.339Z,6.80
2018-09-19T03:29:09.329Z,7.20
2018-09-19T03:30:09.348Z,7.40
2018-09-19T03:31:09.389Z,7.20
2018-09-19T03:32:09.380Z,7.40
2018-09-19T03:33:09.359Z,7.50
2018-09-19T03:34:09.396Z,7.60
2018-09-19T03:35:09.413Z,7.40
2018-09-19T03:36:09.413Z,6.90
2018-09-19T03:37:09.408Z,7.40
2018-09-19T03:38:09.416Z,7.50
2018-09-19T03:39:09.446Z,7.30
2018-09-19T03:40:09.453Z,7.60
2018-09-19T03:41:09.447Z,7.60
2018-09-19T03:42:09.497Z,7.60
2018-09-19T03:43:09.530Z,7.40
2018-09-19T03:44:09.467Z,7.50
2018-09-19T03:45:09.533Z,7.70
2018-09-19T03:46:09.513Z,7.50
2018-09-19T03:47:09.518Z,7.80
2018-09-19T03:48:09.521Z,7.40
2018-09-19T03:49:09.552Z,7.80
2018-09-19T03:50:09.537Z,7.50
2018-09-19T03:51:09.543Z,7.70
2018-09-19T03:52:09.569Z,7.70
2018-09-19T03:53:09.562Z,7.50
2018-09-19T03:54:09.615Z,8.00
2018-09-19T03:55:09.596Z,7.50
2018-09-19T03:56:09.655Z,7.70
2018-09-19T03:57:09.641Z,7.60
2018-09-19T03:58:09.693Z,7.90
2018-09-19T03:59:09.654Z,7.80
2018-09-19T04:00:09.660Z,8.00
2018-09-19T04:01:09.718Z,7.60
2018-09-19T04:02:09.691Z,7.90
2018-09-19T04:03:09.681Z,7.70
2018-09-19T04:04:09.680Z,7.60
2018-09-19T04:05:09.709Z,8.30
2018-09-19T04:06:09.720Z,7.90
2018-09-19T04:07:09.756Z,7.90
2018-09-19T04:08:09.756Z,8.00
2018-09-19T04:09:09.747Z,7.80
2018-09-19T04:10:09.756Z,8.20
2018-09-19T04:11:09.773Z,8.10
2018-09-19T04:12:09.791Z,7.70
2018-09-19T04:13:09.846Z,8.00
2018-09-19T04:14:09.837Z,8.00
2018-09-19T04:15:09.839Z,8.20
2018-09-19T04:16:09.822Z,7.80
2018-09-19T04:17:09.852Z,8.10
2018-09-19T04:18:09.893Z,8.00
2018-09-19T04:19:09.888Z,8.20
2018-09-19T04:20:09.880Z,8.50
2018-09-19T04:21:09.916Z,7.70
2018-09-19T04:22:09.912Z,8.30
2018-09-19T04:23:09.936Z,8.00
2018-09-19T04:24:09.919Z,7.90
2018-09-19T04:25:09.950Z,8.10
2018-09-19T04:26:09.991Z,7.90
2018-09-19T04:27:09.976Z,8.10
2018-09-19T04:28:09.941Z,8.10
2018-09-19T04:29:09.980Z,8.30
2018-09-19T04:30:09.964Z,8.00
2018-09-19T04:31:09.999Z,8.20
2018-09-19T04:32:10.069Z,9.10
2018-09-19T04:33:10.047Z,8.40
2018-09-19T04:34:10.009Z,8.50
2018-09-19T04:35:10.025Z,8.40
2018-09-19T04:36:10.074Z,8.60
2018-09-19T04:37:10.074Z,9.10
2018-09-19T04:38:10.079Z,8.70
2018-09-19T04:39:10.063Z,8.50
2018-09-19T04:40:10.105Z,8.90
2018-09-19T04:41:10.107Z,8.80
2018-09-19T04:42:10.090Z,8.60
2018-09-19T04:43:10.137Z,8.50
2018-09-19T04:44:10.130Z,8.70
2018-09-19T04:45:10.157Z,9.00
2018-09-19T04:46:10.163Z,8.40
2018-09-19T04:47:10.151Z,8.80
2018-09-19T04:48:10.259Z,8.90
2018-09-19T04:49:10.191Z,8.60
2018-09-19T04:50:10.243Z,9.00
2018-09-19T04:51:10.210Z,8.80
2018-09-19T04:52:10.212Z,8.70
2018-09-19T04:53:10.255Z,8.80
2018-09-19T04:54:10.241Z,8.90
2018-09-19T04:55:10.303Z,9.10
2018-09-19T04:56:10.298Z,9.20
2018-09-19T04:57:10.254Z,9.10
2018-09-19T04:58:10.269Z,9.30
2018-09-19T04:59:10.283Z,9.20
2018-09-19T05:00:10.349Z,13.20
2018-09-19T05:01:10.330Z,13.50
2018-09-19T05:02:10.307Z,10.60
2018-09-19T05:03:10.430Z,9.50
2018-09-19T05:04:10.332Z,9.80
2018-09-19T05:05:10.380Z,9.90
2018-09-19T05:06:10.374Z,9.10
2018-09-19T05:07:10.422Z,9.90
2018-09-19T05:08:10.414Z,10.30
2018-09-19T05:09:10.401Z,10.00
2018-09-19T05:10:10.412Z,9.60
2018-09-19T05:11:10.492Z,9.40
2018-09-19T05:12:10.595Z,10.30
2018-09-19T05:13:10.460Z,11.30
2018-09-19T05:14:10.449Z,10.10
2018-09-19T05:15:10.439Z,10.40
2018-09-19T05:16:10.509Z,10.40
2018-09-19T05:17:10.478Z,10.90
2018-09-19T05:18:10.520Z,10.90
2018-09-19T05:19:10.504Z,10.70
2018-09-19T05:20:10.495Z,11.10
2018-09-19T05:21:10.554Z,10.60
2018-09-19T05:22:10.523Z,10.80
2018-09-19T05:23:10.574Z,10.90
2018-09-19T05:24:10.564Z,10.20
2018-09-19T05:25:10.577Z,10.80
2018-09-19T05:26:10.583Z,14.40
2018-09-19T05:27:10.608Z,12.80
2018-09-19T05:28:10.625Z,12.30
2018-09-19T05:29:10.647Z,12.00
2018-09-19T05:30:10.616Z,12.00
2018-09-19T05:31:10.714Z,11.40
2018-09-19T05:32:10.633Z,10.70
2018-09-19T05:33:10.690Z,10.20
2018-09-19T05:34:10.679Z,10.30
2018-09-19T05:35:10.762Z,10.40
2018-09-19T05:36:10.699Z,10.70
2018-09-19T05:37:10.729Z,11.20
2018-09-19T05:38:10.719Z,11.00
2018-09-19T05:39:10.726Z,10.30
2018-09-19T05:40:10.807Z,10.70
2018-09-19T05:41:10.775Z,10.70
2018-09-19T05:42:10.736Z,11.10
2018-09-19T05:43:10.820Z,11.10
2018-09-19T05:44:10.771Z,10.60
2018-09-19T05:45:10.819Z,10.90
2018-09-19T05:46:10.898Z,10.40
2018-09-19T05:47:10.812Z,10.10
2018-09-19T05:48:10.818Z,9.80
2018-09-19T05:49:10.835Z,10.20
2018-09-19T05:50:10.850Z,11.40
2018-09-19T05:51:10.860Z,11.50
2018-09-19T05:52:10.903Z,11.00
2018-09-19T05:53:10.863Z,10.10
2018-09-19T05:54:10.899Z,10.20
2018-09-19T05:55:10.895Z,9.80
2018-09-19T05:56:10.967Z,10.50
2018-09-19T05:57:10.943Z,9.80
2018-09-19T05:58:10.945Z,10.20
2018-09-19T05:59:10.972Z,9.60
2018-09-19T06:00:10.966Z,12.10
2018-09-19T06:01:10.994Z,11.50
2018-09-19T06:02:10.984Z,10.40
2018-09-19T06:03:11.004Z,9.90
2018-09-19T06:04:11.032Z,10.00
2018-09-19T06:05:11.076Z,10.10
2018-09-19T06:06:11.017Z,10.50
2018-09-19T06:07:11.048Z,10.60
2018-09-19T06:08:11.036Z,10.60
2018-09-19T06:09:11.087Z,10.80
2018-09-19T06:10:11.098Z,11.40
2018-09-19T06:11:11.199Z,10.90
2018-09-19T06:12:11.162Z,10.40
2018-09-19T06:13:11.112Z,10.70
2018-09-19T06:14:11.153Z,11.40
2018-09-19T06:15:11.141Z,12.30
2018-09-19T06:16:11.121Z,12.60
2018-09-19T06:17:11.137Z,11.90
2018-09-19T06:18:11.164Z,12.10
2018-09-19T06:19:11.212Z,12.50
2018-09-19T06:20:11.195Z,13.20
2018-09-19T06:21:11.203Z,13.90
2018-09-19T06:22:11.211Z,13.90
2018-09-19T06:23:11.263Z,13.10
2018-09-19T06:24:11.295Z,15.20
2018-09-19T06:25:11.258Z,14.80
2018-09-19T06:26:11.260Z,14.40
2018-09-19T06:27:11.272Z,14.70
2018-09-19T06:28:11.271Z,13.70
2018-09-19T06:29:11.325Z,12.90
2018-09-19T06:30:11.322Z,12.90
2018-09-19T06:31:11.335Z,12.30
2018-09-19T06:32:11.340Z,11.40
2018-09-19T06:33:11.452Z,11.70
2018-09-19T06:34:11.345Z,11.80
2018-09-19T06:35:11.414Z,12.10
2018-09-19T06:36:11.437Z,12.20
2018-09-19T06:37:11.561Z,11.10
2018-09-19T06:38:11.423Z,12.20
2018-09-19T06:39:11.445Z,12.70
2018-09-19T06:40:11.505Z,11.70
2018-09-19T06:41:11.443Z,11.70
2018-09-19T06:42:11.438Z,11.20
2018-09-19T06:43:11.456Z,11.00
2018-09-19T06:44:11.512Z,11.90
2018-09-19T06:45:11.487Z,11.80
2018-09-19T06:46:11.539Z,11.80
2018-09-19T06:47:11.543Z,11.60
2018-09-19T06:48:11.513Z,11.40
2018-09-19T06:49:11.505Z,12.30
2018-09-19T06:50:11.522Z,12.40
2018-09-19T06:51:11.580Z,12.70
2018-09-19T06:52:11.634Z,13.10
2018-09-19T06:53:11.583Z,12.60
2018-09-19T06:54:11.583Z,11.90
2018-09-19T06:55:11.602Z,12.40
2018-09-19T06:56:11.586Z,13.30
2018-09-19T06:57:11.656Z,12.80
2018-09-19T06:58:11.670Z,11.90
2018-09-19T06:59:11.699Z,12.00
2018-09-19T07:00:11.640Z,12.80
2018-09-19T07:01:11.714Z,11.90
2018-09-19T07:02:11.730Z,13.10
2018-09-19T07:03:11.729Z,13.00
2018-09-19T07:04:11.702Z,12.40
2018-09-19T07:05:11.707Z,12.30
2018-09-19T07:06:11.756Z,12.40
2018-09-19T07:07:11.747Z,13.00
2018-09-19T07:08:11.766Z,13.40
2018-09-19T07:09:11.800Z,13.30
2018-09-19T07:10:11.772Z,12.90
2018-09-19T07:11:11.773Z,12.40
2018-09-19T07:12:11.803Z,12.00
2018-09-19T07:13:11.850Z,12.30
2018-09-19T07:14:11.844Z,12.80
2018-09-19T07:15:11.844Z,13.00
2018-09-19T07:16:11.833Z,14.60
2018-09-19T07:17:11.831Z,13.80
2018-09-19T07:18:11.845Z,12.50
2018-09-19T07:19:12.009Z,11.50
2018-09-19T07:20:11.925Z,12.00
2018-09-19T07:21:11.916Z,11.40
2018-09-19T07:22:11.920Z,12.20
2018-09-19T07:23:11.943Z,12.00
2018-09-19T07:24:12.062Z,12.20
2018-09-19T07:25:12.046Z,12.70
2018-09-19T07:26:11.973Z,13.10
2018-09-19T07:27:12.005Z,14.40
2018-09-19T07:28:11.974Z,13.50
2018-09-19T07:29:12.039Z,13.40
2018-09-19T07:30:11.997Z,12.60
2018-09-19T07:31:12.113Z,13.20
2018-09-19T07:32:12.056Z,11.70
2018-09-19T07:33:12.115Z,14.00
2018-09-19T07:34:12.046Z,12.50
2018-09-19T07:35:12.051Z,11.60
2018-09-19T07:36:12.152Z,14.60
2018-09-19T07:37:12.084Z,14.40
2018-09-19T07:38:12.091Z,13.80
2018-09-19T07:39:12.105Z,12.50
2018-09-19T07:40:12.127Z,13.10
2018-09-19T07:41:12.140Z,12.00
2018-09-19T07:42:12.273Z,11.70
2018-09-19T07:43:12.160Z,10.10
2018-09-19T07:44:12.209Z,12.40
2018-09-19T07:45:12.186Z,11.90
2018-09-19T07:46:12.200Z,10.40
2018-09-19T07:47:12.227Z,9.40
2018-09-19T07:48:12.265Z,9.70
2018-09-19T07:49:12.266Z,9.60
2018-09-19T07:50:12.428Z,9.60
2018-09-19T07:51:12.262Z,8.70
2018-09-19T07:52:12.275Z,9.00
2018-09-19T07:53:12.327Z,9.30
2018-09-19T07:54:12.308Z,9.80
2018-09-19T07:55:12.367Z,10.30
2018-09-19T07:56:12.302Z,8.80
2018-09-19T07:57:12.319Z,10.10
2018-09-19T07:58:12.408Z,10.10
2018-09-19T07:59:12.346Z,10.80
2018-09-19T08:00:12.363Z,9.60
2018-09-19T08:01:12.518Z,9.50
2018-09-19T08:02:12.636Z,9.30
2018-09-19T08:03:12.750Z,9.80
2018-09-19T08:04:12.465Z,10.70
2018-09-19T08:05:12.431Z,10.80
2018-09-19T08:06:12.447Z,10.80
2018-09-19T08:07:12.525Z,10.50
2018-09-19T08:08:12.508Z,10.10
2018-09-19T08:09:12.510Z,10.10
2018-09-19T08:10:12.515Z,10.90
2018-09-19T08:11:12.589Z,9.40
2018-09-19T08:12:12.517Z,9.30
2018-09-19T08:13:12.555Z,11.30
2018-09-19T08:14:12.573Z,10.60
2018-09-19T08:15:12.588Z,8.70
2018-09-19T08:16:12.617Z,10.60
2018-09-19T08:17:12.654Z,9.90
2018-09-19T08:18:12.601Z,9.70
2018-09-19T08:19:12.604Z,9.80
2018-09-19T08:20:12.676Z,9.70
2018-09-19T08:21:12.648Z,9.20
2018-09-19T08:22:12.744Z,9.10
2018-09-19T08:23:13.016Z,8.80
2018-09-19T08:24:12.680Z,8.30
2018-09-19T08:25:12.691Z,8.30
2018-09-19T08:26:12.701Z,8.90
2018-09-19T08:27:12.710Z,8.00
2018-09-19T08:28:12.721Z,8.30
2018-09-19T08:29:12.781Z,8.30
2018-09-19T08:30:12.729Z,8.70
2018-09-19T08:31:12.774Z,8.50
2018-09-19T08:32:12.742Z,8.70
2018-09-19T08:33:12.910Z,8.10
2018-09-19T08:34:12.816Z,7.20
2018-09-19T08:35:12.812Z,7.30
2018-09-19T08:36:12.807Z,7.40
2018-09-19T08:37:12.922Z,7.30
2018-09-19T08:38:12.840Z,7.10
2018-09-19T08:39:12.953Z,6.70
2018-09-19T08:40:12.857Z,6.20
2018-09-19T08:41:12.878Z,6.50
2018-09-19T08:42:12.872Z,6.30
2018-09-19T08:43:12.914Z,5.90
2018-09-19T08:44:12.951Z,6.10
2018-09-19T08:45:12.922Z,8.40
2018-09-19T08:46:12.926Z,6.50
2018-09-19T08:47:12.996Z,6.50
2018-09-19T08:48:12.960Z,7.50
2018-09-19T08:49:12.989Z,6.80
2018-09-19T08:50:13.020Z,6.30
2018-09-19T08:51:12.988Z,6.20
2018-09-19T08:52:13.038Z,6.50
2018-09-19T08:53:13.154Z,6.00
2018-09-19T08:54:13.052Z,6.10
2018-09-19T08:55:13.058Z,6.10
2018-09-19T08:56:13.068Z,6.10
2018-09-19T08:57:13.826Z,6.20
2018-09-19T08:58:13.091Z,5.90
2018-09-19T08:59:13.112Z,6.30
2018-09-19T09:00:13.137Z,5.90
2018-09-19T09:01:13.144Z,6.30
2018-09-19T09:02:13.183Z,6.60
2018-09-19T09:03:13.163Z,6.90
2018-09-19T09:04:13.186Z,6.80
2018-09-19T09:05:13.848Z,6.80
2018-09-19T09:06:13.235Z,6.40
2018-09-19T09:07:13.215Z,6.40
2018-09-19T09:08:13.259Z,6.40
2018-09-19T09:09:13.259Z,6.70
2018-09-19T09:10:13.241Z,6.40
2018-09-19T09:11:13.372Z,7.60
2018-09-19T09:12:13.328Z,7.50
2018-09-19T09:13:13.282Z,6.70
2018-09-19T09:14:13.320Z,6.60
2018-09-19T09:15:13.305Z,6.90
2018-09-19T09:16:13.328Z,6.90
2018-09-19T09:17:13.330Z,7.10
2018-09-19T09:18:13.369Z,6.60
2018-09-19T09:19:13.352Z,6.80
2018-09-19T09:20:13.390Z,6.80
2018-09-19T09:21:13.440Z,6.20
2018-09-19T09:22:13.420Z,6.00
2018-09-19T09:23:13.380Z,5.90
2018-09-19T09:24:13.409Z,6.70
2018-09-19T09:25:13.428Z,6.30
2018-09-19T09:26:13.501Z,6.50
2018-09-19T09:27:13.472Z,6.60
2018-09-19T09:28:13.461Z,5.90
2018-09-19T09:29:13.485Z,6.40
2018-09-19T09:30:13.495Z,5.90
2018-09-19T09:31:13.561Z,6.10
2018-09-19T09:32:13.554Z,6.20
2018-09-19T09:33:13.534Z,6.30
2018-09-19T09:34:13.562Z,6.60
2018-09-19T09:35:13.630Z,6.40
2018-09-19T09:36:13.615Z,6.20
2018-09-19T09:37:13.781Z,6.40
2018-09-19T09:38:13.677Z,6.00
2018-09-19T09:39:13.595Z,6.00
2018-09-19T09:40:13.650Z,6.20
2018-09-19T09:41:13.624Z,6.60
2018-09-19T09:42:13.636Z,5.60
2018-09-19T09:43:13.682Z,5.70
2018-09-19T09:44:13.693Z,5.70
2018-09-19T09:45:13.720Z,7.60
2018-09-19T09:46:13.693Z,6.60
2018-09-19T09:47:14.285Z,5.90
2018-09-19T09:48:13.689Z,5.70
2018-09-19T09:49:13.909Z,5.50
2018-09-19T09:50:13.776Z,5.60
2018-09-19T09:51:13.789Z,5.60
2018-09-19T09:52:14.139Z,5.40
2018-09-19T09:53:13.834Z,5.10
2018-09-19T09:54:13.961Z,5.90
2018-09-19T09:55:14.095Z,5.70
2018-09-19T09:56:14.085Z,6.00
2018-09-19T09:57:13.837Z,6.20
2018-09-19T09:58:13.866Z,5.80
2018-09-19T09:59:13.850Z,5.80
2018-09-19T10:00:15.142Z,6.00
2018-09-19T10:01:13.899Z,6.00
2018-09-19T10:02:14.148Z,5.50
2018-09-19T10:03:13.956Z,5.60
2018-09-19T10:04:13.958Z,5.80
2018-09-19T10:05:13.930Z,6.60
2018-09-19T10:06:13.937Z,6.20
2018-09-19T10:07:13.976Z,5.80
2018-09-19T10:08:13.985Z,6.60
2018-09-19T10:09:13.997Z,6.70
2018-09-19T10:10:14.042Z,6.90
2018-09-19T10:11:14.057Z,6.30
2018-09-19T10:12:14.054Z,6.40
2018-09-19T10:13:14.025Z,6.90
2018-09-19T10:14:14.061Z,6.80
2018-09-19T10:15:14.119Z,6.10
2018-09-19T10:16:14.096Z,5.90
2018-09-19T10:17:14.079Z,6.50
2018-09-19T10:18:14.095Z,6.10
2018-09-19T10:19:14.113Z,6.60
2018-09-19T10:20:14.395Z,8.50
2018-09-19T10:21:14.136Z,6.70
2018-09-19T10:22:14.165Z,6.70
2018-09-19T10:23:14.178Z,6.90
2018-09-19T10:24:14.168Z,8.90
2018-09-19T10:25:14.170Z,7.20
2018-09-19T10:26:14.203Z,6.90
2018-09-19T10:27:14.418Z,6.50
2018-09-19T10:28:14.244Z,6.50
2018-09-19T10:29:14.269Z,6.60
2018-09-19T10:30:14.239Z,6.30
2018-09-19T10:31:14.247Z,6.70
2018-09-19T10:32:14.303Z,6.50
2018-09-19T10:33:14.307Z,7.10
2018-09-19T10:34:14.795Z,9.40
2018-09-19T10:35:14.484Z,7.40
2018-09-19T10:36:14.348Z,6.50
2018-09-19T10:37:14.507Z,6.40
2018-09-19T10:38:14.360Z,6.40
2018-09-19T10:39:14.365Z,7.10
2018-09-19T10:40:14.363Z,7.00
2018-09-19T10:41:14.372Z,7.60
2018-09-19T10:42:14.786Z,6.90
2018-09-19T10:43:14.444Z,6.30
2018-09-19T10:44:14.441Z,6.00
2018-09-19T10:45:14.449Z,6.30
2018-09-19T10:46:14.495Z,5.70
2018-09-19T10:47:14.514Z,6.30
2018-09-19T10:48:14.669Z,5.00
2018-09-19T10:49:14.681Z,5.60
2018-09-19T10:50:14.731Z,5.80
2018-09-19T10:51:14.630Z,5.40
2018-09-19T10:52:14.711Z,6.50
2018-09-19T10:53:14.943Z,6.30
2018-09-19T10:54:14.589Z,7.00
2018-09-19T10:55:14.632Z,9.20
2018-09-19T10:56:14.938Z,7.70
2018-09-19T10:57:14.590Z,6.30
2018-09-19T10:58:14.848Z,7.10
2018-09-19T10:59:14.845Z,5.90
2018-09-19T11:00:14.695Z,5.50
2018-09-19T11:01:14.928Z,6.20
2018-09-19T11:02:14.911Z,6.40
2018-09-19T11:03:14.744Z,6.40
2018-09-19T11:04:14.733Z,6.50
2018-09-19T11:05:15.091Z,5.90
2018-09-19T11:06:15.091Z,5.40
2018-09-19T11:07:15.653Z,6.30
2018-09-19T11:08:15.412Z,5.40
2018-09-19T11:09:14.896Z,5.40
2018-09-19T11:10:14.869Z,5.80
2018-09-19T11:11:15.300Z,5.80
2018-09-19T11:12:15.011Z,6.40
2018-09-19T11:13:15.165Z,5.80
2018-09-19T11:14:15.532Z,6.20
2018-09-19T11:15:15.194Z,5.80
2018-09-19T11:16:14.961Z,5.20
2018-09-19T11:17:15.230Z,5.70
2018-09-19T11:18:15.290Z,5.60
2018-09-19T11:19:14.872Z,5.10
2018-09-19T11:20:14.898Z,4.80
2018-09-19T11:21:14.903Z,5.30
2018-09-19T11:22:14.908Z,5.30
2018-09-19T11:23:15.067Z,5.90
2018-09-19T11:24:15.164Z,6.70
2018-09-19T11:25:15.021Z,5.50
2018-09-19T11:26:15.012Z,6.20
2018-09-19T11:27:14.980Z,6.10
2018-09-19T11:28:14.983Z,6.30
2018-09-19T11:29:14.992Z,5.80
2018-09-19T11:30:15.007Z,6.60
2018-09-19T11:31:15.043Z,6.20
2018-09-19T11:32:15.036Z,6.50
2018-09-19T11:33:15.060Z,6.00
2018-09-19T11:34:15.163Z,6.00
2018-09-19T11:35:15.097Z,5.80
2018-09-19T11:36:15.157Z,5.90
2018-09-19T11:37:15.116Z,7.40
2018-09-19T11:38:15.120Z,6.30
2018-09-19T11:39:15.124Z,6.30
2018-09-19T11:40:15.138Z,5.90
2018-09-19T11:41:15.178Z,6.90
2018-09-19T11:42:15.179Z,7.00
2018-09-19T11:43:15.244Z,6.40
2018-09-19T11:44:15.228Z,6.00
2018-09-19T11:45:15.200Z,5.60
2018-09-19T11:46:15.209Z,5.70
2018-09-19T11:47:15.230Z,5.80
2018-09-19T11:48:15.300Z,5.50
2018-09-19T11:49:15.272Z,5.70
2018-09-19T11:50:15.270Z,5.60
2018-09-19T11:51:15.294Z,5.10
2018-09-19T11:52:15.370Z,5.80
2018-09-19T11:53:15.457Z,5.70
2018-09-19T11:54:15.332Z,5.50
2018-09-19T11:55:15.667Z,6.00
2018-09-19T11:56:15.363Z,5.70
2018-09-19T11:57:15.369Z,6.10
2018-09-19T11:58:15.395Z,5.60
2018-09-19T11:59:15.401Z,5.90
2018-09-19T12:00:15.490Z,5.80
2018-09-19T12:01:15.464Z,6.00
2018-09-19T12:02:15.435Z,6.50
2018-09-19T12:03:15.474Z,6.60
2018-09-19T12:04:15.507Z,5.80
2018-09-19T12:05:15.467Z,5.20
2018-09-19T12:06:15.504Z,6.10
2018-09-19T12:07:15.508Z,6.00
2018-09-19T12:08:15.549Z,6.00
2018-09-19T12:09:15.615Z,6.20
2018-09-19T12:10:15.554Z,5.70
2018-09-19T12:11:15.603Z,5.80
2018-09-19T12:12:15.599Z,5.90
2018-09-19T12:13:15.604Z,5.60
2018-09-19T12:14:15.588Z,5.60
2018-09-19T12:15:15.613Z,5.60
2018-09-19T12:16:15.668Z,5.70
2018-09-19T12:17:15.633Z,6.30
2018-09-19T12:18:15.670Z,6.70
2018-09-19T12:19:15.690Z,6.00
2018-09-19T12:20:15.695Z,6.10
2018-09-19T12:21:15.675Z,6.10
2018-09-19T12:22:15.828Z,6.20
2018-09-19T12:23:15.696Z,6.50
2018-09-19T12:24:15.725Z,6.10
2018-09-19T12:25:15.730Z,6.50
2018-09-19T12:26:15.757Z,5.70
2018-09-19T12:27:15.996Z,5.50
2018-09-19T12:28:15.843Z,5.90
2018-09-19T12:29:15.789Z,6.00
2018-09-19T12:30:15.813Z,5.90
2018-09-19T12:31:15.828Z,7.20
2018-09-19T12:32:15.829Z,5.80
2018-09-19T12:33:15.901Z,6.10
2018-09-19T12:34:15.847Z,5.60
2018-09-19T12:35:15.954Z,8.00
2018-09-19T12:36:15.918Z,5.50
2018-09-19T12:37:15.914Z,5.60
2018-09-19T12:38:15.918Z,6.20
2018-09-19T12:39:15.914Z,5.70
2018-09-19T12:40:15.950Z,5.30
2018-09-19T12:41:15.964Z,5.50
2018-09-19T12:42:15.948Z,5.40
2018-09-19T12:43:15.998Z,5.70
2018-09-19T12:44:15.987Z,6.10
2018-09-19T12:45:16.103Z,5.40
2018-09-19T12:46:16.064Z,5.90
2018-09-19T12:47:16.082Z,5.90
2018-09-19T12:48:16.093Z,5.90
2018-09-19T12:49:16.091Z,5.60
2018-09-19T12:50:16.127Z,6.20
2018-09-19T12:51:16.081Z,5.50
2018-09-19T12:52:16.163Z,5.60
2018-09-19T12:53:16.167Z,6.00
2018-09-19T12:54:16.129Z,5.40
2018-09-19T12:55:16.132Z,5.40
2018-09-19T12:56:16.166Z,5.80
2018-09-19T12:57:16.187Z,5.60
2018-09-19T12:58:16.231Z,5.50
2018-09-19T12:59:16.193Z,5.00
2018-09-19T13:00:16.214Z,5.30
2018-09-19T13:01:16.221Z,5.30
2018-09-19T13:02:16.276Z,5.20
2018-09-19T13:03:16.310Z,5.10
2018-09-19T13:04:16.319Z,5.70
2018-09-19T13:05:16.269Z,5.60
2018-09-19T13:06:16.311Z,5.20
2018-09-19T13:07:16.315Z,5.00
2018-09-19T13:08:16.321Z,4.90
2018-09-19T13:09:16.330Z,5.70
2018-09-19T13:10:16.376Z,4.90